Time;durP1;ratioP1;P1;durP2;ratioP2;P2;SDS_P1;SDS_P2;PMS_P1;PMS_P2;Temp;Humidity;BMP_temperature;BMP_pressure;BME280_temperature;BME280_humidity;BME280_pressure;Samples;Min_cycle;Max_cycle;Signal;HPM_P1;HPM_P2
2021/03/02 00:00:23;;;;;;;32.90;12.90;;;;;;;2.98;100.00;102926.06;4992940;28;20034;-74
2021/03/02 00:02:49;;;;;;;36.97;14.40;;;;;;;2.80;100.00;102929.06;4980594;28;20030;-74
2021/03/02 00:05:15;;;;;;;32.25;12.82;;;;;;;2.92;100.00;102929.75;4991199;28;20034;-74
2021/03/02 00:07:41;;;;;;;30.55;13.63;;;;;;;2.89;100.00;102918.78;4989455;28;20038;-74
2021/03/02 00:10:10;;;;;;;37.70;15.23;;;;;;;2.85;100.00;102918.47;4972163;28;20037;-74
2021/03/02 00:12:37;;;;;;;39.88;15.45;;;;;;;2.80;100.00;102921.06;4990817;28;20061;-74
2021/03/02 00:15:04;;;;;;;37.03;14.18;;;;;;;2.80;100.00;102929.06;4991856;28;20329;-74
2021/03/02 00:17:47;;;;;;;33.15;13.27;;;;;;;2.73;100.00;102926.56;4982458;28;20109;-75
2021/03/02 00:20:21;;;;;;;35.88;13.50;;;;;;;2.71;100.00;102925.19;4989985;28;20046;-74
2021/03/02 00:22:55;;;;;;;39.15;14.00;;;;;;;2.71;100.00;102920.69;4988281;28;20117;-75
2021/03/02 00:25:22;;;;;;;33.85;13.70;;;;;;;2.81;100.00;102920.00;4988604;28;20121;-74
2021/03/02 00:27:51;;;;;;;37.63;14.15;;;;;;;2.89;100.00;102924.91;4996756;28;20022;-74
2021/03/02 00:30:18;;;;;;;38.22;14.07;;;;;;;2.97;100.00;102921.00;4998574;28;20030;-73
2021/03/02 00:32:45;;;;;;;36.70;12.55;;;;;;;3.11;99.34;102916.94;4982557;28;20474;-74
2021/03/02 00:35:11;;;;;;;41.10;13.27;;;;;;;2.86;99.33;102924.59;4988858;28;20034;-74
2021/03/02 00:37:36;;;;;;;41.38;14.13;;;;;;;2.89;100.00;102918.78;4990252;28;20089;-74
2021/03/02 00:40:02;;;;;;;36.97;13.43;;;;;;;2.78;100.00;102917.84;4987426;28;20037;-74
2021/03/02 00:42:28;;;;;;;37.92;13.23;;;;;;;2.78;100.00;102915.19;4990344;28;20580;-74
2021/03/02 00:44:53;;;;;;;34.95;13.05;;;;;;;2.74;100.00;102919.41;4987877;28;20121;-74
2021/03/02 00:47:19;;;;;;;36.17;13.13;;;;;;;2.69;100.00;102914.03;4990430;28;20034;-74
2021/03/02 00:49:44;;;;;;;39.83;14.77;;;;;;;2.66;100.00;102914.50;4982673;28;20038;-74
2021/03/02 00:52:10;;;;;;;36.28;12.68;;;;;;;2.57;100.00;102916.78;4951532;28;20026;-75
2021/03/02 00:54:35;;;;;;;34.53;13.05;;;;;;;2.44;100.00;102911.00;4979779;28;20081;-74
2021/03/02 00:57:01;;;;;;;31.90;13.13;;;;;;;2.38;100.00;102906.66;5022970;23;20038;-79
2021/03/02 00:59:27;;;;;;;32.97;12.60;;;;;;;2.44;100.00;102906.47;5034291;28;20060;-79
2021/03/02 01:01:54;;;;;;;38.22;14.05;;;;;;;2.52;100.00;102902.59;5032101;28;20039;-79
2021/03/02 01:04:21;;;;;;;35.70;12.90;;;;;;;2.47;100.00;102897.22;5017532;28;20497;-79
2021/03/02 01:06:47;;;;;;;34.97;12.90;;;;;;;2.45;100.00;102896.66;5026526;28;20501;-79
2021/03/02 01:09:13;;;;;;;37.13;12.13;;;;;;;2.46;100.00;102898.25;5035050;28;20033;-78
2021/03/02 01:11:43;;;;;;;39.30;14.15;;;;;;;2.35;100.00;102902.63;5028608;28;20029;-79
2021/03/02 01:14:11;;;;;;;39.88;14.85;;;;;;;2.26;100.00;102898.78;5020182;28;20037;-79
2021/03/02 01:16:36;;;;;;;43.80;14.20;;;;;;;2.34;100.00;102895.69;5035645;28;20029;-79
2021/03/02 01:19:02;;;;;;;41.08;13.95;;;;;;;2.29;100.00;102892.16;5012807;28;20030;-79
2021/03/02 01:21:27;;;;;;;30.48;12.52;;;;;;;2.50;100.00;102894.06;5034483;28;20406;-78
2021/03/02 01:23:53;;;;;;;30.50;12.95;;;;;;;2.59;100.00;102890.72;5026629;28;20033;-79
2021/03/02 01:26:18;;;;;;;36.05;12.60;;;;;;;2.66;99.71;102886.06;5024521;28;20136;-79
2021/03/02 01:28:43;;;;;;;35.33;13.38;;;;;;;2.50;100.00;102884.22;5029926;28;20045;-79
2021/03/02 01:31:09;;;;;;;35.13;13.95;;;;;;;2.45;100.00;102883.38;5034603;28;20404;-79
2021/03/02 01:33:34;;;;;;;37.58;14.07;;;;;;;2.41;100.00;102874.25;5034861;28;20033;-79
2021/03/02 01:36:00;;;;;;;34.53;13.48;;;;;;;2.30;100.00;102878.66;5029655;28;20576;-79
2021/03/02 01:38:25;;;;;;;36.15;13.52;;;;;;;2.27;100.00;102878.31;5035393;28;20034;-79
2021/03/02 01:40:51;;;;;;;38.65;14.10;;;;;;;2.33;100.00;102880.81;5031691;28;20021;-79
2021/03/02 01:43:17;;;;;;;43.83;14.07;;;;;;;2.11;100.00;102874.63;5020112;28;20485;-79
2021/03/02 01:45:42;;;;;;;43.28;13.80;;;;;;;2.21;100.00;102879.28;5035243;28;20072;-78
2021/03/02 01:48:08;;;;;;;39.97;13.38;;;;;;;2.03;100.00;102888.34;5029231;28;20045;-79
2021/03/02 01:50:34;;;;;;;37.40;14.73;;;;;;;2.15;100.00;102891.69;5033195;28;21457;-79
2021/03/02 01:53:00;;;;;;;36.95;13.13;;;;;;;2.25;100.00;102880.41;5038952;28;20030;-79
2021/03/02 01:55:26;;;;;;;39.42;13.68;;;;;;;2.12;100.00;102875.44;5038827;28;20021;-78
2021/03/02 01:57:52;;;;;;;38.97;13.13;;;;;;;2.13;100.00;102883.16;5033615;28;20386;-80
2021/03/02 02:00:27;;;;;;;37.40;13.95;;;;;;;2.15;100.00;102877.63;5024214;28;20026;-79
2021/03/02 02:03:18;;;;;;;33.13;13.20;;;;;;;2.14;100.00;102873.34;5022592;28;20101;-78
2021/03/02 02:05:47;;;;;;;40.85;14.48;;;;;;;2.10;100.00;102888.16;5028679;28;20025;-79
2021/03/02 02:08:16;;;;;;;36.47;12.23;;;;;;;2.14;100.00;102876.00;5042616;28;20033;-79
2021/03/02 02:10:47;;;;;;;43.45;14.00;;;;;;;1.96;100.00;102878.88;5054171;28;20078;-79
2021/03/02 02:13:38;;;;;;;39.13;13.75;;;;;;;1.87;100.00;102877.69;5039647;28;20094;-79
2021/03/02 02:16:10;;;;;;;38.03;14.00;;;;;;;1.99;100.00;102883.75;5025277;28;20042;-78
2021/03/02 02:18:42;;;;;;;42.88;13.35;;;;;;;1.99;100.00;102878.44;5038897;28;20036;-79
2021/03/02 02:21:18;;;;;;;44.35;14.65;;;;;;;2.02;100.00;102881.41;5034535;28;20436;-79
2021/03/02 02:24:02;;;;;;;65.05;17.45;;;;;;;2.16;100.00;102876.56;5035474;28;20037;-79
2021/03/02 02:26:33;;;;;;;54.58;17.13;;;;;;;2.26;100.00;102882.03;5034689;28;20497;-79
2021/03/02 02:29:01;;;;;;;48.42;15.52;;;;;;;2.10;100.00;102875.69;5037740;28;20486;-79
2021/03/02 02:31:29;;;;;;;43.80;14.98;;;;;;;2.18;100.00;102874.47;5037734;28;20231;-79
2021/03/02 02:33:58;;;;;;;52.28;16.55;;;;;;;2.12;100.00;102880.75;5025895;28;20041;-79
2021/03/02 02:36:24;;;;;;;53.55;17.70;;;;;;;2.26;100.00;102879.38;5031956;28;20676;-78
2021/03/02 02:38:53;;;;;;;50.78;16.13;;;;;;;2.24;100.00;102876.97;5039353;28;20398;-79
2021/03/02 02:41:21;;;;;;;50.83;17.02;;;;;;;2.11;100.00;102877.28;5037602;28;20045;-78
2021/03/02 02:43:52;;;;;;;52.10;17.90;;;;;;;1.83;100.00;102880.84;5031345;28;20025;-79
2021/03/02 02:46:20;;;;;;;58.15;18.58;;;;;;;1.83;100.00;102878.19;5040178;28;20387;-79
2021/03/02 02:48:47;;;;;;;57.92;18.27;;;;;;;1.66;100.00;102877.38;5032677;28;20686;-79
2021/03/02 02:51:13;;;;;;;62.65;18.77;;;;;;;1.56;100.00;102879.03;5038459;28;20037;-78
2021/03/02 02:53:39;;;;;;;57.67;18.17;;;;;;;2.07;100.00;102883.34;5039245;28;20033;-79
2021/03/02 02:56:06;;;;;;;58.97;18.08;;;;;;;2.14;100.00;102884.78;5015945;28;20089;-79
2021/03/02 02:58:39;;;;;;;56.30;18.17;;;;;;;1.99;100.00;102881.09;5000716;28;20044;-79
2021/03/02 03:01:06;;;;;;;63.20;18.00;;;;;;;1.83;100.00;102877.38;5028121;28;20036;-79
2021/03/02 03:03:35;;;;;;;60.20;17.85;;;;;;;1.69;100.00;102866.25;5040744;28;20417;-79
2021/03/02 03:06:05;;;;;;;65.13;18.88;;;;;;;1.84;100.00;102873.66;5032442;28;20103;-79
2021/03/02 03:08:32;;;;;;;60.08;19.42;;;;;;;1.54;100.00;102875.81;5039280;28;20041;-79
2021/03/02 03:10:59;;;;;;;65.10;19.25;;;;;;;1.56;100.00;102871.88;5040790;28;20033;-78
2021/03/02 03:13:29;;;;;;;61.25;19.92;;;;;;;1.56;100.00;102874.53;5042677;28;20037;-79
2021/03/02 03:16:00;;;;;;;64.15;18.88;;;;;;;1.71;100.00;102880.09;5033153;28;20100;-79
2021/03/02 03:18:30;;;;;;;60.00;18.92;;;;;;;1.57;100.00;102880.63;5025252;28;20056;-79
2021/03/02 03:20:57;;;;;;;56.03;19.02;;;;;;;1.57;100.00;102876.13;5018626;28;20018;-78
2021/03/02 03:23:23;;;;;;;57.25;18.58;;;;;;;1.56;100.00;102868.41;5028892;28;20506;-79
2021/03/02 03:25:48;;;;;;;50.53;17.67;;;;;;;1.53;100.00;102877.66;5036708;28;20059;-79
2021/03/02 03:28:16;;;;;;;52.28;17.70;;;;;;;1.61;100.00;102879.13;5044542;28;20029;-79
2021/03/02 03:30:42;;;;;;;53.45;17.55;;;;;;;1.68;100.00;102877.91;5042869;28;20037;-79
2021/03/02 03:33:10;;;;;;;48.97;17.67;;;;;;;1.92;100.00;102875.13;5042010;28;20493;-79
2021/03/02 03:35:37;;;;;;;51.60;17.45;;;;;;;1.75;100.00;102870.63;5032770;28;20030;-79
2021/03/02 03:38:03;;;;;;;57.63;17.55;;;;;;;1.71;100.00;102877.44;5039393;28;20048;-79
2021/03/02 03:40:29;;;;;;;52.13;18.23;;;;;;;1.78;100.00;102885.28;5034157;28;20061;-79
2021/03/02 03:42:54;;;;;;;51.13;17.70;;;;;;;1.97;100.00;102881.31;5039153;28;20040;-79
2021/03/02 03:45:20;;;;;;;55.92;18.27;;;;;;;2.13;100.00;102877.06;5015146;28;20067;-79
2021/03/02 03:47:46;;;;;;;49.85;16.48;;;;;;;1.57;100.00;102873.47;5044486;28;20030;-79
2021/03/02 03:50:13;;;;;;;41.72;15.82;;;;;;;1.66;100.00;102865.94;5036193;28;20033;-80
2021/03/02 03:52:42;;;;;;;43.63;17.55;;;;;;;1.70;100.00;102867.06;5054211;28;20045;-80
2021/03/02 03:55:11;;;;;;;40.10;15.35;;;;;;;1.60;100.00;102873.03;5042433;28;20139;-80
2021/03/02 03:57:38;;;;;;;36.88;14.88;;;;;;;1.54;100.00;102868.66;5042850;28;20041;-79
2021/03/02 04:00:05;;;;;;;43.95;17.17;;;;;;;1.47;100.00;102872.53;5038044;28;20021;-79
2021/03/02 04:02:33;;;;;;;42.05;16.23;;;;;;;1.64;100.00;102878.66;5033358;28;20040;-79
2021/03/02 04:05:03;;;;;;;43.15;16.75;;;;;;;1.72;100.00;102871.09;5043019;28;20040;-79
2021/03/02 04:07:29;;;;;;;40.15;15.65;;;;;;;1.64;100.00;102873.34;5038680;28;20037;-79
2021/03/02 04:09:54;;;;;;;41.05;16.38;;;;;;;1.64;100.00;102870.69;5039247;28;20041;-79
2021/03/02 04:12:21;;;;;;;42.80;15.85;;;;;;;1.44;100.00;102879.09;5035910;28;20033;-79
2021/03/02 04:14:46;;;;;;;41.03;14.80;;;;;;;1.37;100.00;102859.06;5039394;28;20033;-79
2021/03/02 04:17:12;;;;;;;42.53;15.38;;;;;;;1.26;100.00;102866.03;5042705;28;20025;-79
2021/03/02 04:19:38;;;;;;;38.22;14.40;;;;;;;1.35;100.00;102869.94;5028185;28;20025;-79
2021/03/02 04:22:03;;;;;;;44.13;15.38;;;;;;;1.37;100.00;102865.19;5026780;28;20059;-78
2021/03/02 04:24:29;;;;;;;34.58;14.18;;;;;;;1.22;100.00;102862.22;5015513;28;20089;-79
2021/03/02 04:26:55;;;;;;;33.42;13.35;;;;;;;1.20;100.00;102864.31;5037358;28;20053;-78
2021/03/02 04:29:21;;;;;;;40.28;14.25;;;;;;;0.97;100.00;102867.06;5020641;28;20110;-79
2021/03/02 04:31:46;;;;;;;40.65;14.40;;;;;;;0.66;100.00;102870.13;5025983;28;20450;-79
2021/03/02 04:34:12;;;;;;;42.47;14.63;;;;;;;0.78;100.00;102863.78;5029308;28;20084;-79
2021/03/02 04:36:37;;;;;;;40.15;14.38;;;;;;;0.96;100.00;102865.47;5035138;28;20037;-78
2021/03/02 04:39:03;;;;;;;41.97;15.18;;;;;;;1.05;100.00;102860.56;5036499;28;20041;-78
2021/03/02 04:41:28;;;;;;;39.25;14.80;;;;;;;1.18;100.00;102869.06;5025143;28;20040;-78
2021/03/02 04:43:54;;;;;;;42.85;15.27;;;;;;;1.18;100.00;102869.06;5037158;28;20025;-78
2021/03/02 04:46:19;;;;;;;45.20;15.05;;;;;;;1.38;100.00;102866.78;5025725;28;20034;-78
2021/03/02 04:48:46;;;;;;;42.97;15.23;;;;;;;1.10;100.00;102861.50;5039678;28;20021;-78
2021/03/02 04:51:12;;;;;;;42.28;15.95;;;;;;;1.26;100.00;102863.38;5032771;28;20029;-81
2021/03/02 04:53:37;;;;;;;40.75;15.93;;;;;;;1.23;100.00;102858.56;5033990;28;20101;-78
2021/03/02 04:56:03;;;;;;;44.60;16.23;;;;;;;1.31;100.00;102860.81;5038610;28;20025;-79
2021/03/02 04:58:28;;;;;;;41.95;16.27;;;;;;;1.29;100.00;102860.25;5037476;28;20030;-79
2021/03/02 05:00:54;;;;;;;42.15;15.32;;;;;;;1.25;100.00;102859.13;5035265;28;20863;-78
2021/03/02 05:03:19;;;;;;;40.42;15.63;;;;;;;1.19;100.00;102865.38;5024463;28;20110;-79
2021/03/02 05:05:45;;;;;;;38.72;15.80;;;;;;;1.06;100.00;102865.66;5036798;28;20071;-80
2021/03/02 05:08:10;;;;;;;37.17;14.88;;;;;;;0.80;100.00;102860.88;5023482;28;20092;-80
2021/03/02 05:10:36;;;;;;;38.85;14.63;;;;;;;0.87;100.00;102865.00;5040395;28;20030;-81
2021/03/02 05:13:01;;;;;;;35.63;13.82;;;;;;;0.91;100.00;102857.38;5020221;28;20029;-80
2021/03/02 05:15:26;;;;;;;41.83;15.00;;;;;;;1.00;100.00;102865.78;5035697;28;20010;-80
2021/03/02 05:17:52;;;;;;;40.90;14.63;;;;;;;1.17;100.00;102864.81;5041177;28;20034;-80
2021/03/02 05:20:17;;;;;;;37.83;15.00;;;;;;;1.18;100.00;102863.75;5036772;28;20101;-81
2021/03/02 05:22:43;;;;;;;40.45;14.65;;;;;;;1.02;100.00;102864.53;5045194;28;20041;-81
2021/03/02 05:25:09;;;;;;;41.22;15.90;;;;;;;1.01;100.00;102867.41;5037812;28;20026;-80
2021/03/02 05:27:34;;;;;;;48.88;17.23;;;;;;;1.08;100.00;102868.06;5026188;28;20191;-80
2021/03/02 05:30:00;;;;;;;43.80;16.70;;;;;;;1.10;100.00;102871.28;5045111;28;20037;-81
2021/03/02 05:32:25;;;;;;;47.97;15.77;;;;;;;1.12;100.00;102864.72;5042118;28;20033;-80
2021/03/02 05:34:51;;;;;;;42.60;15.73;;;;;;;1.05;100.00;102866.69;5037609;28;20025;-80
2021/03/02 05:37:16;;;;;;;40.22;16.20;;;;;;;0.98;100.00;102867.88;5045061;28;20010;-80
2021/03/02 05:39:41;;;;;;;41.80;15.82;;;;;;;0.88;100.00;102856.03;5035771;28;20091;-80
2021/03/02 05:42:07;;;;;;;42.75;16.25;;;;;;;0.81;100.00;102862.50;5037129;28;20042;-80
2021/03/02 05:44:33;;;;;;;39.67;16.10;;;;;;;0.75;100.00;102863.44;5032762;28;20034;-81
2021/03/02 05:46:59;;;;;;;40.88;15.32;;;;;;;0.75;100.00;102871.41;5032913;28;20037;-81
2021/03/02 05:49:26;;;;;;;48.78;18.05;;;;;;;0.79;100.00;102862.72;5017492;28;20401;-81
2021/03/02 05:51:52;;;;;;;44.67;16.73;;;;;;;0.93;100.00;102872.03;5042557;28;20123;-80
2021/03/02 05:54:18;;;;;;;50.05;17.63;;;;;;;0.75;100.00;102871.41;5040171;28;20034;-80
2021/03/02 05:56:44;;;;;;;50.03;17.45;;;;;;;0.69;100.00;102867.84;5046883;28;20044;-80
2021/03/02 05:59:10;;;;;;;47.95;17.27;;;;;;;0.92;100.00;102864.31;5036954;28;20041;-81
2021/03/02 06:01:36;;;;;;;47.75;16.63;;;;;;;0.84;100.00;102872.63;5034561;28;20029;-81
2021/03/02 06:04:02;;;;;;;49.63;17.67;;;;;;;0.77;100.00;102882.56;5033239;28;20109;-81
2021/03/02 06:06:28;;;;;;;51.78;18.65;;;;;;;0.74;100.00;102877.72;5040182;28;20052;-80
2021/03/02 06:08:54;;;;;;;50.72;17.95;;;;;;;0.84;100.00;102872.63;5041914;28;20029;-80
2021/03/02 06:11:36;;;;;;;50.65;17.92;;;;;;;0.88;100.00;102868.47;5043261;28;20052;-81
2021/03/02 06:14:21;;;;;;;53.00;17.58;;;;;;;0.87;100.00;102867.66;5032524;28;20036;-81
2021/03/02 06:16:48;;;;;;;52.47;17.60;;;;;;;0.78;100.00;102871.72;5042871;28;20037;-81
2021/03/02 06:19:14;;;;;;;53.15;17.75;;;;;;;0.78;100.00;102879.69;5028738;28;20031;-80
2021/03/02 06:21:40;;;;;;;58.00;20.75;;;;;;;1.28;100.00;102874.53;5027101;28;20056;-80
2021/03/02 06:24:26;;;;;;;54.78;18.15;;;;;;;1.48;100.00;102877.59;5038704;28;20060;-81
2021/03/02 06:27:05;;;;;;;59.75;19.75;;;;;;;0.96;100.00;102869.94;5020997;28;20054;-80
2021/03/02 06:29:31;;;;;;;62.17;19.17;;;;;;;1.05;100.00;102868.53;4994084;28;20603;-80
2021/03/02 06:31:56;;;;;;;55.30;18.05;;;;;;;0.98;100.00;102871.34;5013686;28;20052;-81
2021/03/02 06:34:22;;;;;;;57.38;19.45;;;;;;;0.93;100.00;102872.03;4987621;28;20612;-81
2021/03/02 06:36:53;;;;;;;60.80;19.48;;;;;;;0.89;100.00;102872.75;5016047;28;20041;-80
2021/03/02 06:39:21;;;;;;;;;;;;;;;1.11;100.00;102870.22;5004601;28;20038;-81
2021/03/02 06:41:48;;;;;;;55.17;17.25;;;;;;;1.25;100.00;102875.03;4999428;28;19909;-81
2021/03/02 06:44:14;;;;;;;53.55;18.33;;;;;;;1.06;100.00;102868.31;4987680;28;20038;-80
2021/03/02 06:46:40;;;;;;;50.38;17.75;;;;;;;0.94;100.00;102880.78;4999897;28;20057;-80
2021/03/02 06:49:06;;;;;;;48.72;16.77;;;;;;;1.08;100.00;102871.53;4993231;28;20088;-80
2021/03/02 06:51:34;;;;;;;50.05;17.73;;;;;;;1.16;100.00;102871.13;5000948;28;20773;-81
2021/03/02 06:54:11;;;;;;;55.85;18.05;;;;;;;1.12;100.00;102875.31;5013514;28;20030;-81
2021/03/02 06:56:38;;;;;;;57.95;18.08;;;;;;;1.41;100.00;102881.44;5010869;28;20185;-81
2021/03/02 07:01:39;;;;;;;55.40;17.92;;;;;;;1.27;100.00;102872.97;4989769;28;20077;-75
2021/03/02 07:04:09;;;;;;;50.80;18.40;;;;;;;1.18;100.00;102878.88;4982342;28;20460;-75
2021/03/02 07:06:37;;;;;;;50.58;17.10;;;;;;;1.15;100.00;102887.28;4987357;28;20482;-75
2021/03/02 07:09:03;;;;;;;50.42;17.95;;;;;;;1.14;100.00;102878.56;5012187;28;20041;-75
2021/03/02 07:11:29;;;;;;;48.25;17.83;;;;;;;1.53;100.00;102877.66;5022153;28;20034;-75
2021/03/02 07:13:55;;;;;;;49.85;17.55;;;;;;;1.38;100.00;102881.88;5007521;28;20036;-76
2021/03/02 07:16:20;;;;;;;47.17;17.88;;;;;;;1.47;100.00;102888.44;5016408;28;20030;-75
2021/03/02 07:18:47;;;;;;;56.78;18.33;;;;;;;1.72;100.00;102888.88;5021150;28;20436;-75
2021/03/02 07:21:13;;;;;;;50.45;18.73;;;;;;;1.56;100.00;102890.47;5013164;28;20048;-75
2021/03/02 07:23:40;;;;;;;46.97;17.40;;;;;;;1.21;100.00;102889.81;5004159;28;20386;-75
2021/03/02 07:26:06;;;;;;;50.47;18.52;;;;;;;1.60;100.00;102883.63;5010026;28;20026;-76
2021/03/02 07:28:35;;;;;;;51.38;18.17;;;;;;;1.45;100.00;102886.00;5011493;28;20626;-75
2021/03/02 07:31:01;;;;;;;53.17;18.02;;;;;;;1.51;100.00;102884.28;5025995;28;20060;-76
2021/03/02 07:33:26;;;;;;;47.00;18.23;;;;;;;1.61;100.00;102885.22;5020009;28;20025;-75
2021/03/02 07:35:57;;;;;;;52.55;17.58;;;;;;;1.61;100.00;102887.88;5028802;28;20049;-74
2021/03/02 07:38:23;;;;;;;42.15;17.10;;;;;;;1.91;100.00;102892.09;4997845;28;20038;-75
2021/03/02 07:40:54;;;;;;;52.08;19.75;;;;;;;1.89;100.00;102892.34;5011007;28;20017;-75
2021/03/02 07:43:23;;;;;;;54.08;19.63;;;;;;;2.37;100.00;102894.41;5013310;28;20036;-75
2021/03/02 07:45:52;;;;;;;47.53;18.05;;;;;;;2.22;100.00;102886.22;5025159;28;20121;-74
2021/03/02 07:48:26;;;;;;;47.38;17.92;;;;;;;2.31;100.00;102885.56;5011929;28;20398;-76
2021/03/02 07:51:12;;;;;;;44.67;17.00;;;;;;;2.41;100.00;102892.88;5005569;28;20111;-76
2021/03/02 07:53:38;;;;;;;47.97;19.23;;;;;;;2.56;100.00;102890.41;5014314;28;20029;-76
2021/03/02 07:56:12;;;;;;;47.70;19.73;;;;;;;2.80;100.00;102888.34;5015447;28;20037;-76
2021/03/02 07:58:38;;;;;;;42.97;19.27;;;;;;;2.96;100.00;102893.59;5006892;28;20034;-75
2021/03/02 08:01:22;;;;;;;41.85;17.65;;;;;;;3.06;100.00;102893.72;5018425;28;20036;-75
2021/03/02 08:03:48;;;;;;;40.13;17.63;;;;;;;3.55;100.00;102897.97;5019220;28;20041;-75
2021/03/02 08:06:22;;;;;;;40.78;16.98;;;;;;;4.06;100.00;102899.22;5016229;28;20397;-73
2021/03/02 08:08:51;;;;;;;37.72;17.13;;;;;;;3.77;100.00;102911.25;5024113;28;20112;-75
2021/03/02 08:11:31;;;;;;;40.30;18.02;;;;;;;4.48;100.00;102912.56;5014909;28;20037;-75
2021/03/02 08:13:58;;;;;;;47.80;20.70;;;;;;;4.63;98.47;102909.97;5024153;28;20026;-74
2021/03/02 08:16:53;;;;;;;42.65;18.38;;;;;;;5.04;97.41;102919.78;5011487;28;20038;-75
2021/03/02 08:19:38;;;;;;;36.28;16.88;;;;;;;4.73;96.03;102915.38;5009579;28;20026;-75
2021/03/02 08:22:19;;;;;;;37.35;17.77;;;;;;;4.62;98.27;102924.38;5004233;28;20045;-75
2021/03/02 08:24:55;;;;;;;39.35;17.85;;;;;;;5.25;98.04;102916.13;4976955;28;20033;-75
2021/03/02 08:27:40;;;;;;;45.03;18.60;;;;;;;5.87;94.25;102909.81;4970574;28;20045;-74
2021/03/02 08:30:07;;;;;;;35.80;17.15;;;;;;;6.12;94.86;102902.63;5020521;28;20036;-75
2021/03/02 08:32:33;;;;;;;41.28;17.55;;;;;;;6.59;93.52;102917.50;5025122;28;20040;-75
2021/03/02 08:35:04;;;;;;;41.95;17.75;;;;;;;7.09;90.10;102912.78;5011830;28;20030;-75
2021/03/02 08:37:42;;;;;;;37.70;17.55;;;;;;;7.34;87.80;102919.88;5024450;28;20037;-75
2021/03/02 08:40:10;;;;;;;34.70;16.45;;;;;;;7.45;87.55;102918.78;5017810;28;20090;-76
2021/03/02 08:42:37;;;;;;;34.20;15.40;;;;;;;6.07;90.74;102912.50;5021119;28;20033;-75
2021/03/02 08:45:05;;;;;;;30.40;15.23;;;;;;;6.53;92.86;102906.03;5018683;28;20041;-76
2021/03/02 08:47:31;;;;;;;34.20;16.58;;;;;;;6.65;92.54;102911.06;5005869;28;20042;-74
2021/03/02 08:49:56;;;;;;;33.13;16.00;;;;;;;6.46;90.31;102907.38;5015937;28;20034;-75
2021/03/02 08:52:21;;;;;;;32.40;16.08;;;;;;;7.13;92.14;102913.84;5009735;28;20402;-74
2021/03/02 08:54:50;;;;;;;37.78;16.85;;;;;;;7.63;89.05;102912.75;5005893;28;20044;-75
2021/03/02 08:57:16;;;;;;;28.70;15.00;;;;;;;7.06;90.35;102918.72;4989751;28;20037;-75
2021/03/02 08:59:41;;;;;;;31.38;15.43;;;;;;;7.27;90.09;102911.38;5011677;28;20391;-75
2021/03/02 09:02:07;;;;;;;31.23;16.27;;;;;;;7.39;88.77;102911.84;4997262;28;20039;-75
2021/03/02 09:04:33;;;;;;;32.80;14.85;;;;;;;7.46;88.88;102915.00;4991479;28;20034;-75
2021/03/02 09:06:59;;;;;;;31.48;15.48;;;;;;;8.07;88.29;102910.00;4985391;28;20110;-75
2021/03/02 09:09:26;;;;;;;34.30;16.15;;;;;;;8.02;84.71;102916.19;4987583;28;20034;-75
2021/03/02 09:11:54;;;;;;;30.60;15.75;;;;;;;8.86;85.07;102912.16;4981247;28;20253;-75
2021/03/02 09:14:21;;;;;;;29.63;14.35;;;;;;;9.20;80.50;102915.47;4988491;28;20092;-75
2021/03/02 09:16:52;;;;;;;27.98;15.27;;;;;;;9.78;80.28;102922.16;4995042;28;20117;-75
2021/03/02 09:19:30;;;;;;;32.33;15.80;;;;;;;9.53;78.65;102924.41;4998802;28;20408;-75
2021/03/02 09:22:06;;;;;;;28.65;15.57;;;;;;;9.65;78.46;102914.03;4996715;28;20125;-75
2021/03/02 09:24:38;;;;;;;30.50;15.93;;;;;;;10.19;78.93;102914.25;4996539;28;20042;-76
2021/03/02 09:27:05;;;;;;;28.70;15.52;;;;;;;10.68;76.53;102917.09;4989056;28;20089;-75
2021/03/02 09:29:40;;;;;;;28.95;14.50;;;;;;;10.87;74.51;102920.50;4993703;28;20026;-75
2021/03/02 09:32:06;;;;;;;30.05;14.82;;;;;;;10.34;74.71;102919.34;4975427;28;20121;-74
2021/03/02 09:34:40;;;;;;;29.27;15.05;;;;;;;10.20;75.34;102915.81;4962001;28;20500;-75
2021/03/02 09:37:12;;;;;;;28.15;14.50;;;;;;;10.78;75.93;102916.88;4985440;28;20117;-75
2021/03/02 09:39:40;;;;;;;29.63;15.20;;;;;;;10.97;72.13;102916.78;4996625;28;20062;-75
2021/03/02 09:42:17;;;;;;;29.50;15.20;;;;;;;11.03;74.48;102914.78;4991808;28;20088;-75
2021/03/02 09:44:46;;;;;;;25.60;14.30;;;;;;;11.21;72.50;102914.66;4966384;28;20062;-75
2021/03/02 09:47:17;;;;;;;25.42;14.27;;;;;;;10.98;70.81;102917.56;4997615;28;20044;-75
2021/03/02 09:49:53;;;;;;;26.23;14.85;;;;;;;11.73;67.77;102914.03;4979877;28;20030;-75
2021/03/02 09:52:21;;;;;;;24.55;13.77;;;;;;;10.27;73.72;102913.56;4986304;28;20491;-75
2021/03/02 09:55:18;;;;;;;25.65;13.93;;;;;;;11.06;71.05;102904.19;4970952;28;20038;-75
2021/03/02 09:57:49;;;;;;;30.25;14.07;;;;;;;10.45;73.06;102901.91;4960605;28;20057;-75
2021/03/02 10:00:15;;;;;;;;;;;;;;;11.13;72.98;102901.88;4998248;28;20088;-74
2021/03/02 10:02:51;;;;;;;24.95;13.50;;;;;;;11.22;71.44;102899.28;4999666;28;19939;-75
2021/03/02 10:05:41;;;;;;;28.02;14.43;;;;;;;10.99;70.87;102893.03;4986402;28;20043;-76
2021/03/02 10:08:19;;;;;;;27.95;14.55;;;;;;;11.52;71.46;102891.28;4998436;28;20453;-74
2021/03/02 10:10:45;;;;;;;28.70;14.40;;;;;;;12.06;69.90;102890.25;4992555;28;20025;-74
2021/03/02 10:13:11;;;;;;;29.73;15.02;;;;;;;11.47;69.83;102896.81;5010764;28;20038;-75
2021/03/02 10:15:37;;;;;;;28.42;14.40;;;;;;;10.97;72.26;102889.84;4996267;28;20038;-74
2021/03/02 10:18:21;;;;;;;23.38;13.80;;;;;;;11.60;71.94;102892.44;5010721;28;20045;-74
2021/03/02 10:21:40;;;;;;;24.05;13.15;;;;;;;11.43;72.30;102897.72;5017991;28;20126;-75
2021/03/02 10:24:06;;;;;;;28.95;14.50;;;;;;;11.65;71.15;102889.66;4889469;29;20044;-75
2021/03/02 10:26:34;;;;;;;28.38;13.70;;;;;;;11.76;69.77;102907.22;4987103;28;21035;-74
2021/03/02 10:29:01;;;;;;;26.90;13.90;;;;;;;11.76;69.96;102901.81;5011191;28;20067;-74
2021/03/02 10:31:27;;;;;;;23.75;13.18;;;;;;;11.53;71.36;102897.50;5010860;28;20026;-75
2021/03/02 10:33:53;;;;;;;27.08;13.77;;;;;;;11.60;72.72;102900.53;4996050;28;20088;-75
2021/03/02 10:36:27;;;;;;;24.75;13.48;;;;;;;11.83;71.87;102896.78;5020871;28;20398;-75
2021/03/02 10:38:56;;;;;;;26.75;13.70;;;;;;;11.85;69.91;102896.47;4975904;28;20030;-75
2021/03/02 10:41:22;;;;;;;25.42;13.38;;;;;;;12.01;71.48;102897.69;5007043;28;20038;-75
2021/03/02 10:43:48;;;;;;;25.42;13.73;;;;;;;12.19;69.75;102894.78;4997898;28;20081;-75
2021/03/02 10:46:15;;;;;;;28.23;13.90;;;;;;;12.33;69.81;102884.66;5010496;28;20030;-75
2021/03/02 10:48:41;;;;;;;29.55;14.27;;;;;;;12.44;69.43;102891.41;5007480;28;20093;-75
2021/03/02 10:51:06;;;;;;;29.13;13.85;;;;;;;12.95;68.88;102890.75;5009001;28;20422;-76
2021/03/02 10:53:32;;;;;;;29.90;14.30;;;;;;;12.68;67.36;102891.81;4995810;28;20030;-75
2021/03/02 10:55:58;;;;;;;28.45;14.23;;;;;;;12.52;69.04;102885.22;5006294;28;20072;-75
2021/03/02 10:58:24;;;;;;;28.40;13.60;;;;;;;12.78;68.53;102890.72;4989550;28;20448;-75
2021/03/02 11:00:50;;;;;;;30.42;13.70;;;;;;;12.90;67.88;102895.53;4980769;28;20042;-76
2021/03/02 11:03:16;;;;;;;35.97;14.63;;;;;;;12.92;66.24;102894.09;4995168;28;20037;-75
2021/03/02 11:05:41;;;;;;;28.48;14.40;;;;;;;13.14;67.00;102894.00;4992137;28;20550;-76
2021/03/02 11:08:07;;;;;;;24.50;13.90;;;;;;;13.19;65.39;102893.06;4977361;28;20066;-75
2021/03/02 11:10:33;;;;;;;27.23;14.27;;;;;;;13.52;64.77;102889.59;4991430;28;20022;-75
2021/03/02 11:12:58;;;;;;;25.20;14.10;;;;;;;13.46;63.99;102890.06;4988827;28;20589;-75
2021/03/02 11:15:24;;;;;;;23.42;12.70;;;;;;;13.61;63.80;102891.50;4974073;28;20041;-75
2021/03/02 11:17:49;;;;;;;24.30;13.88;;;;;;;13.50;65.40;102885.59;4993601;28;20057;-75
2021/03/02 11:20:16;;;;;;;26.52;14.32;;;;;;;13.78;64.84;102880.63;4994317;28;20053;-75